sensor_id;sensor_type;location;lat;lon;timestamp;P1;durP1;ratioP1;P2;durP2;ratioP2
7444;SDS011;3764;48.126;11.594;2023-05-02T00:01:09;3.65;;;3.35;;
7444;SDS011;3764;48.126;11.594;2023-05-02T00:03:36;4.13;;;3.40;;
7444;SDS011;3764;48.126;11.594;2023-05-02T00:06:04;4.30;;;3.90;;
7444;SDS011;3764;48.126;11.594;2023-05-02T00:08:32;4.90;;;3.97;;
7444;SDS011;3764;48.126;11.594;2023-05-02T00:10:59;4.07;;;3.67;;
7444;SDS011;3764;48.126;11.594;2023-05-02T00:13:26;3.50;;;3.20;;
7444;SDS011;3764;48.126;11.594;2023-05-02T00:15:53;3.28;;;2.97;;
7444;SDS011;3764;48.126;11.594;2023-05-02T00:18:20;4.03;;;3.65;;
7444;SDS011;3764;48.126;11.594;2023-05-02T00:20:48;3.90;;;3.60;;
7444;SDS011;3764;48.126;11.594;2023-05-02T00:23:17;3.80;;;3.40;;
7444;SDS011;3764;48.126;11.594;2023-05-02T00:25:44;3.83;;;3.53;;
7444;SDS011;3764;48.126;11.594;2023-05-02T00:28:11;4.07;;;3.70;;
7444;SDS011;3764;48.126;11.594;2023-05-02T00:30:41;3.80;;;3.45;;
7444;SDS011;3764;48.126;11.594;2023-05-02T00:33:09;4.97;;;3.80;;
7444;SDS011;3764;48.126;11.594;2023-05-02T00:35:36;6.35;;;3.50;;
7444;SDS011;3764;48.126;11.594;2023-05-02T00:38:03;4.15;;;3.45;;
7444;SDS011;3764;48.126;11.594;2023-05-02T00:40:42;4.20;;;3.60;;
7444;SDS011;3764;48.126;11.594;2023-05-02T00:43:10;3.78;;;3.40;;
7444;SDS011;3764;48.126;11.594;2023-05-02T00:45:37;4.72;;;4.05;;
7444;SDS011;3764;48.126;11.594;2023-05-02T00:48:06;4.93;;;3.90;;
7444;SDS011;3764;48.126;11.594;2023-05-02T00:50:34;4.80;;;4.35;;
7444;SDS011;3764;48.126;11.594;2023-05-02T00:53:02;4.50;;;3.95;;
7444;SDS011;3764;48.126;11.594;2023-05-02T00:55:30;3.72;;;3.42;;
7444;SDS011;3764;48.126;11.594;2023-05-02T00:57:59;5.72;;;3.58;;
7444;SDS011;3764;48.126;11.594;2023-05-02T01:00:30;4.18;;;3.63;;
7444;SDS011;3764;48.126;11.594;2023-05-02T01:03:09;4.70;;;3.97;;
7444;SDS011;3764;48.126;11.594;2023-05-02T01:05:44;3.83;;;3.10;;
7444;SDS011;3764;48.126;11.594;2023-05-02T01:08:24;3.83;;;3.42;;
7444;SDS011;3764;48.126;11.594;2023-05-02T01:11:02;3.67;;;3.20;;
7444;SDS011;3764;48.126;11.594;2023-05-02T01:13:41;3.85;;;3.45;;
7444;SDS011;3764;48.126;11.594;2023-05-02T01:16:10;4.32;;;3.88;;
7444;SDS011;3764;48.126;11.594;2023-05-02T01:18:40;4.20;;;3.28;;
7444;SDS011;3764;48.126;11.594;2023-05-02T01:21:09;3.50;;;3.20;;
7444;SDS011;3764;48.126;11.594;2023-05-02T01:23:44;3.38;;;2.95;;
7444;SDS011;3764;48.126;11.594;2023-05-02T01:26:21;3.80;;;3.50;;
7444;SDS011;3764;48.126;11.594;2023-05-02T01:28:57;3.55;;;3.25;;
7444;SDS011;3764;48.126;11.594;2023-05-02T01:31:25;3.45;;;3.15;;
7444;SDS011;3764;48.126;11.594;2023-05-02T01:33:56;3.97;;;3.58;;
7444;SDS011;3764;48.126;11.594;2023-05-02T01:36:26;4.28;;;3.22;;
7444;SDS011;3764;48.126;11.594;2023-05-02T01:38:56;4.00;;;3.60;;
7444;SDS011;3764;48.126;11.594;2023-05-02T01:41:25;3.55;;;3.25;;
7444;SDS011;3764;48.126;11.594;2023-05-02T01:43:53;3.78;;;3.47;;
7444;SDS011;3764;48.126;11.594;2023-05-02T01:46:24;3.35;;;3.00;;
7444;SDS011;3764;48.126;11.594;2023-05-02T01:48:53;5.53;;;3.45;;
7444;SDS011;3764;48.126;11.594;2023-05-02T01:51:22;4.53;;;3.20;;
7444;SDS011;3764;48.126;11.594;2023-05-02T01:53:57;4.47;;;3.22;;
7444;SDS011;3764;48.126;11.594;2023-05-02T01:56:28;4.00;;;3.63;;
7444;SDS011;3764;48.126;11.594;2023-05-02T02:02:05;3.83;;;3.42;;
7444;SDS011;3764;48.126;11.594;2023-05-02T02:04:34;4.10;;;3.22;;
7444;SDS011;3764;48.126;11.594;2023-05-02T02:07:05;3.80;;;3.50;;
7444;SDS011;3764;48.126;11.594;2023-05-02T02:09:34;3.42;;;3.13;;
7444;SDS011;3764;48.126;11.594;2023-05-02T02:12:05;3.58;;;3.28;;
7444;SDS011;3764;48.126;11.594;2023-05-02T02:14:34;5.40;;;3.42;;
7444;SDS011;3764;48.126;11.594;2023-05-02T02:17:04;3.58;;;3.28;;
7444;SDS011;3764;48.126;11.594;2023-05-02T02:19:38;3.45;;;3.15;;
7444;SDS011;3764;48.126;11.594;2023-05-02T02:22:07;3.90;;;3.30;;
7444;SDS011;3764;48.126;11.594;2023-05-02T02:24:35;4.15;;;3.75;;
7444;SDS011;3764;48.126;11.594;2023-05-02T02:27:04;3.35;;;3.05;;
7444;SDS011;3764;48.126;11.594;2023-05-02T02:29:31;3.60;;;3.30;;
7444;SDS011;3764;48.126;11.594;2023-05-02T02:31:58;3.83;;;3.47;;
7444;SDS011;3764;48.126;11.594;2023-05-02T02:34:27;3.30;;;3.00;;
7444;SDS011;3764;48.126;11.594;2023-05-02T02:36:56;3.35;;;3.05;;
7444;SDS011;3764;48.126;11.594;2023-05-02T02:39:34;3.97;;;3.58;;
7444;SDS011;3764;48.126;11.594;2023-05-02T02:42:10;6.70;;;3.15;;
7444;SDS011;3764;48.126;11.594;2023-05-02T02:44:46;3.22;;;2.92;;
7444;SDS011;3764;48.126;11.594;2023-05-02T02:47:22;3.15;;;2.85;;
7444;SDS011;3764;48.126;11.594;2023-05-02T02:49:59;3.33;;;3.03;;
7444;SDS011;3764;48.126;11.594;2023-05-02T02:52:47;3.88;;;3.47;;
7444;SDS011;3764;48.126;11.594;2023-05-02T02:55:20;3.90;;;3.05;;
7444;SDS011;3764;48.126;11.594;2023-05-02T02:57:57;3.40;;;3.10;;
7444;SDS011;3764;48.126;11.594;2023-05-02T03:00:27;3.63;;;3.30;;
7444;SDS011;3764;48.126;11.594;2023-05-02T03:02:56;3.60;;;3.30;;
7444;SDS011;3764;48.126;11.594;2023-05-02T03:05:25;3.83;;;3.42;;
7444;SDS011;3764;48.126;11.594;2023-05-02T03:07:53;4.70;;;4.25;;
7444;SDS011;3764;48.126;11.594;2023-05-02T03:10:21;4.40;;;3.05;;
7444;SDS011;3764;48.126;11.594;2023-05-02T03:12:48;3.67;;;3.28;;
7444;SDS011;3764;48.126;11.594;2023-05-02T03:15:27;3.22;;;2.92;;
7444;SDS011;3764;48.126;11.594;2023-05-02T03:18:10;4.15;;;3.50;;
7444;SDS011;3764;48.126;11.594;2023-05-02T03:20:39;2.80;;;2.60;;
7444;SDS011;3764;48.126;11.594;2023-05-02T03:23:06;3.00;;;2.65;;
7444;SDS011;3764;48.126;11.594;2023-05-02T03:25:33;2.92;;;2.72;;
7444;SDS011;3764;48.126;11.594;2023-05-02T03:28:00;4.15;;;3.03;;
7444;SDS011;3764;48.126;11.594;2023-05-02T03:30:27;3.35;;;3.03;;
7444;SDS011;3764;48.126;11.594;2023-05-02T03:32:54;3.47;;;3.17;;
7444;SDS011;3764;48.126;11.594;2023-05-02T03:35:21;4.25;;;3.00;;
7444;SDS011;3764;48.126;11.594;2023-05-02T03:37:50;3.35;;;3.08;;
7444;SDS011;3764;48.126;11.594;2023-05-02T03:40:17;2.97;;;2.67;;
7444;SDS011;3764;48.126;11.594;2023-05-02T03:42:45;3.90;;;3.50;;
7444;SDS011;3764;48.126;11.594;2023-05-02T03:45:13;3.05;;;2.75;;
7444;SDS011;3764;48.126;11.594;2023-05-02T03:47:40;3.03;;;2.75;;
7444;SDS011;3764;48.126;11.594;2023-05-02T03:50:07;3.35;;;3.05;;
7444;SDS011;3764;48.126;11.594;2023-05-02T03:52:34;3.38;;;2.70;;
7444;SDS011;3764;48.126;11.594;2023-05-02T03:55:03;3.90;;;2.63;;
7444;SDS011;3764;48.126;11.594;2023-05-02T03:57:32;3.38;;;3.08;;
7444;SDS011;3764;48.126;11.594;2023-05-02T03:59:59;3.72;;;3.28;;
7444;SDS011;3764;48.126;11.594;2023-05-02T04:02:26;3.33;;;2.90;;
7444;SDS011;3764;48.126;11.594;2023-05-02T04:04:53;3.10;;;2.90;;
7444;SDS011;3764;48.126;11.594;2023-05-02T04:07:20;3.60;;;3.30;;
7444;SDS011;3764;48.126;11.594;2023-05-02T04:09:49;3.25;;;2.83;;
7444;SDS011;3764;48.126;11.594;2023-05-02T04:12:18;3.20;;;2.90;;
7444;SDS011;3764;48.126;11.594;2023-05-02T04:14:45;3.22;;;2.92;;
7444;SDS011;3764;48.126;11.594;2023-05-02T04:17:13;3.20;;;2.83;;
7444;SDS011;3764;48.126;11.594;2023-05-02T04:19:40;2.83;;;2.63;;
7444;SDS011;3764;48.126;11.594;2023-05-02T04:22:07;3.25;;;2.95;;
7444;SDS011;3764;48.126;11.594;2023-05-02T04:24:35;2.90;;;2.53;;
7444;SDS011;3764;48.126;11.594;2023-05-02T04:27:02;2.97;;;2.78;;
7444;SDS011;3764;48.126;11.594;2023-05-02T04:29:30;3.95;;;3.55;;
7444;SDS011;3764;48.126;11.594;2023-05-02T04:31:57;3.97;;;3.50;;
7444;SDS011;3764;48.126;11.594;2023-05-02T04:34:24;3.70;;;3.13;;
7444;SDS011;3764;48.126;11.594;2023-05-02T04:36:52;5.47;;;3.55;;
7444;SDS011;3764;48.126;11.594;2023-05-02T04:39:19;5.30;;;3.53;;
7444;SDS011;3764;48.126;11.594;2023-05-02T04:41:46;3.88;;;3.50;;
7444;SDS011;3764;48.126;11.594;2023-05-02T04:44:14;3.38;;;3.08;;
7444;SDS011;3764;48.126;11.594;2023-05-02T04:46:42;3.42;;;3.13;;
7444;SDS011;3764;48.126;11.594;2023-05-02T04:49:10;3.42;;;2.95;;
7444;SDS011;3764;48.126;11.594;2023-05-02T04:51:37;3.10;;;2.83;;
7444;SDS011;3764;48.126;11.594;2023-05-02T04:54:04;3.15;;;2.75;;
7444;SDS011;3764;48.126;11.594;2023-05-02T04:56:31;3.10;;;2.80;;
7444;SDS011;3764;48.126;11.594;2023-05-02T04:58:58;4.13;;;3.30;;
7444;SDS011;3764;48.126;11.594;2023-05-02T05:01:25;4.15;;;3.65;;
7444;SDS011;3764;48.126;11.594;2023-05-02T05:03:54;3.20;;;2.92;;
7444;SDS011;3764;48.126;11.594;2023-05-02T05:06:21;4.35;;;3.95;;
7444;SDS011;3764;48.126;11.594;2023-05-02T05:08:48;4.57;;;3.50;;
7444;SDS011;3764;48.126;11.594;2023-05-02T05:11:15;4.72;;;3.88;;
7444;SDS011;3764;48.126;11.594;2023-05-02T05:13:42;3.88;;;3.40;;
7444;SDS011;3764;48.126;11.594;2023-05-02T05:16:10;4.90;;;3.50;;
7444;SDS011;3764;48.126;11.594;2023-05-02T05:18:37;3.58;;;3.28;;
7444;SDS011;3764;48.126;11.594;2023-05-02T05:21:07;3.78;;;3.30;;
7444;SDS011;3764;48.126;11.594;2023-05-02T05:23:34;4.25;;;3.28;;
7444;SDS011;3764;48.126;11.594;2023-05-02T05:26:08;6.60;;;3.95;;
7444;SDS011;3764;48.126;11.594;2023-05-02T05:28:36;4.40;;;3.63;;
7444;SDS011;3764;48.126;11.594;2023-05-02T05:31:04;4.10;;;3.72;;
7444;SDS011;3764;48.126;11.594;2023-05-02T05:33:32;7.00;;;4.25;;
7444;SDS011;3764;48.126;11.594;2023-05-02T05:36:03;5.60;;;4.05;;
7444;SDS011;3764;48.126;11.594;2023-05-02T05:38:32;4.53;;;4.13;;
7444;SDS011;3764;48.126;11.594;2023-05-02T05:40:59;4.90;;;3.80;;
7444;SDS011;3764;48.126;11.594;2023-05-02T05:43:26;10.27;;;6.05;;
7444;SDS011;3764;48.126;11.594;2023-05-02T05:45:54;4.38;;;3.97;;
7444;SDS011;3764;48.126;11.594;2023-05-02T05:48:21;5.93;;;4.20;;
7444;SDS011;3764;48.126;11.594;2023-05-02T05:50:49;5.60;;;5.05;;
7444;SDS011;3764;48.126;11.594;2023-05-02T05:53:16;5.45;;;4.82;;
7444;SDS011;3764;48.126;11.594;2023-05-02T05:55:45;4.60;;;4.20;;
7444;SDS011;3764;48.126;11.594;2023-05-02T05:58:12;5.90;;;5.13;;
7444;SDS011;3764;48.126;11.594;2023-05-02T06:00:39;4.90;;;3.70;;
7444;SDS011;3764;48.126;11.594;2023-05-02T06:03:07;7.30;;;4.68;;
7444;SDS011;3764;48.126;11.594;2023-05-02T06:05:34;7.22;;;4.25;;
7444;SDS011;3764;48.126;11.594;2023-05-02T06:08:01;4.57;;;4.18;;
7444;SDS011;3764;48.126;11.594;2023-05-02T06:10:29;5.95;;;4.78;;
7444;SDS011;3764;48.126;11.594;2023-05-02T06:12:58;4.57;;;4.10;;
7444;SDS011;3764;48.126;11.594;2023-05-02T06:15:25;5.18;;;3.88;;
7444;SDS011;3764;48.126;11.594;2023-05-02T06:17:52;5.38;;;3.97;;
7444;SDS011;3764;48.126;11.594;2023-05-02T06:20:19;4.93;;;4.43;;
7444;SDS011;3764;48.126;11.594;2023-05-02T06:22:46;5.25;;;4.25;;
7444;SDS011;3764;48.126;11.594;2023-05-02T06:25:13;4.47;;;4.07;;
7444;SDS011;3764;48.126;11.594;2023-05-02T06:27:41;4.72;;;4.32;;
7444;SDS011;3764;48.126;11.594;2023-05-02T06:30:09;4.80;;;4.30;;
7444;SDS011;3764;48.126;11.594;2023-05-02T06:32:37;4.90;;;4.40;;
7444;SDS011;3764;48.126;11.594;2023-05-02T06:35:06;5.30;;;4.70;;
7444;SDS011;3764;48.126;11.594;2023-05-02T06:37:34;5.65;;;4.72;;
7444;SDS011;3764;48.126;11.594;2023-05-02T06:40:01;5.80;;;4.80;;
7444;SDS011;3764;48.126;11.594;2023-05-02T06:42:29;6.13;;;4.68;;
7444;SDS011;3764;48.126;11.594;2023-05-02T06:44:56;6.38;;;5.10;;
7444;SDS011;3764;48.126;11.594;2023-05-02T06:47:25;5.95;;;5.28;;
7444;SDS011;3764;48.126;11.594;2023-05-02T06:49:52;7.28;;;5.05;;
7444;SDS011;3764;48.126;11.594;2023-05-02T06:52:19;5.75;;;5.18;;
7444;SDS011;3764;48.126;11.594;2023-05-02T06:54:46;5.40;;;4.90;;
7444;SDS011;3764;48.126;11.594;2023-05-02T06:57:13;5.32;;;4.82;;
7444;SDS011;3764;48.126;11.594;2023-05-02T06:59:40;6.38;;;5.20;;
7444;SDS011;3764;48.126;11.594;2023-05-02T07:02:08;6.43;;;5.38;;
7444;SDS011;3764;48.126;11.594;2023-05-02T07:04:36;5.32;;;4.70;;
7444;SDS011;3764;48.126;11.594;2023-05-02T07:07:03;5.65;;;4.93;;
7444;SDS011;3764;48.126;11.594;2023-05-02T07:09:31;9.88;;;5.88;;
7444;SDS011;3764;48.126;11.594;2023-05-02T07:11:58;5.85;;;5.35;;
7444;SDS011;3764;48.126;11.594;2023-05-02T07:14:26;5.78;;;5.10;;
7444;SDS011;3764;48.126;11.594;2023-05-02T07:16:53;6.82;;;5.97;;
7444;SDS011;3764;48.126;11.594;2023-05-02T07:19:20;7.43;;;6.38;;
7444;SDS011;3764;48.126;11.594;2023-05-02T07:21:49;7.53;;;6.65;;
7444;SDS011;3764;48.126;11.594;2023-05-02T07:24:16;7.97;;;6.75;;
7444;SDS011;3764;48.126;11.594;2023-05-02T07:26:43;5.25;;;4.75;;
7444;SDS011;3764;48.126;11.594;2023-05-02T07:29:10;6.43;;;5.25;;
7444;SDS011;3764;48.126;11.594;2023-05-02T07:31:37;8.98;;;7.13;;
7444;SDS011;3764;48.126;11.594;2023-05-02T07:34:04;6.10;;;5.20;;
7444;SDS011;3764;48.126;11.594;2023-05-02T07:36:31;7.10;;;6.32;;
7444;SDS011;3764;48.126;11.594;2023-05-02T07:39:00;11.27;;;9.32;;
7444;SDS011;3764;48.126;11.594;2023-05-02T07:41:27;8.60;;;7.03;;
7444;SDS011;3764;48.126;11.594;2023-05-02T07:43:54;9.80;;;6.88;;
7444;SDS011;3764;48.126;11.594;2023-05-02T07:46:21;7.90;;;7.10;;
7444;SDS011;3764;48.126;11.594;2023-05-02T07:48:48;7.72;;;6.93;;
7444;SDS011;3764;48.126;11.594;2023-05-02T07:51:18;9.48;;;7.75;;
7444;SDS011;3764;48.126;11.594;2023-05-02T07:53:45;7.72;;;6.90;;
7444;SDS011;3764;48.126;11.594;2023-05-02T07:56:14;8.65;;;6.85;;
7444;SDS011;3764;48.126;11.594;2023-05-02T07:58:41;8.98;;;6.72;;
7444;SDS011;3764;48.126;11.594;2023-05-02T08:01:08;7.60;;;6.75;;
7444;SDS011;3764;48.126;11.594;2023-05-02T08:03:35;7.15;;;6.45;;
7444;SDS011;3764;48.126;11.594;2023-05-02T08:06:02;8.77;;;7.88;;
7444;SDS011;3764;48.126;11.594;2023-05-02T08:08:30;9.00;;;8.10;;
7444;SDS011;3764;48.126;11.594;2023-05-02T08:10:57;7.40;;;6.70;;
7444;SDS011;3764;48.126;11.594;2023-05-02T08:13:25;7.78;;;7.07;;
7444;SDS011;3764;48.126;11.594;2023-05-02T08:15:52;8.07;;;7.28;;
7444;SDS011;3764;48.126;11.594;2023-05-02T08:18:22;8.32;;;7.25;;
7444;SDS011;3764;48.126;11.594;2023-05-02T08:20:49;8.40;;;6.95;;
7444;SDS011;3764;48.126;11.594;2023-05-02T08:23:17;8.98;;;7.15;;
7444;SDS011;3764;48.126;11.594;2023-05-02T08:25:44;8.77;;;7.28;;
7444;SDS011;3764;48.126;11.594;2023-05-02T08:28:11;9.40;;;7.72;;
7444;SDS011;3764;48.126;11.594;2023-05-02T08:30:39;11.15;;;8.75;;
7444;SDS011;3764;48.126;11.594;2023-05-02T08:33:06;8.68;;;7.78;;
7444;SDS011;3764;48.126;11.594;2023-05-02T08:35:34;8.25;;;7.43;;
7444;SDS011;3764;48.126;11.594;2023-05-02T08:38:01;7.75;;;7.00;;
7444;SDS011;3764;48.126;11.594;2023-05-02T08:40:28;9.38;;;7.20;;
7444;SDS011;3764;48.126;11.594;2023-05-02T08:43:01;8.18;;;7.28;;
7444;SDS011;3764;48.126;11.594;2023-05-02T08:45:30;9.32;;;7.20;;
7444;SDS011;3764;48.126;11.594;2023-05-02T08:48:05;9.55;;;7.70;;
7444;SDS011;3764;48.126;11.594;2023-05-02T08:50:35;7.50;;;6.53;;
7444;SDS011;3764;48.126;11.594;2023-05-02T08:53:03;10.73;;;9.25;;
7444;SDS011;3764;48.126;11.594;2023-05-02T08:55:32;9.80;;;7.95;;
7444;SDS011;3764;48.126;11.594;2023-05-02T08:58:00;9.50;;;8.10;;
7444;SDS011;3764;48.126;11.594;2023-05-02T09:00:29;7.95;;;7.10;;
7444;SDS011;3764;48.126;11.594;2023-05-02T09:03:00;7.75;;;6.95;;
7444;SDS011;3764;48.126;11.594;2023-05-02T09:05:38;8.68;;;7.85;;
7444;SDS011;3764;48.126;11.594;2023-05-02T09:08:06;8.18;;;7.38;;
7444;SDS011;3764;48.126;11.594;2023-05-02T09:10:34;9.50;;;7.53;;
7444;SDS011;3764;48.126;11.594;2023-05-02T09:15:57;7.97;;;7.18;;
7444;SDS011;3764;48.126;11.594;2023-05-02T09:18:30;7.60;;;6.80;;
7444;SDS011;3764;48.126;11.594;2023-05-02T09:21:00;9.18;;;7.25;;
7444;SDS011;3764;48.126;11.594;2023-05-02T09:23:40;9.00;;;8.10;;
7444;SDS011;3764;48.126;11.594;2023-05-02T09:26:18;10.45;;;9.45;;
7444;SDS011;3764;48.126;11.594;2023-05-02T09:28:47;11.25;;;9.15;;
7444;SDS011;3764;48.126;11.594;2023-05-02T09:31:15;8.57;;;7.65;;
7444;SDS011;3764;48.126;11.594;2023-05-02T09:33:44;10.90;;;9.10;;
7444;SDS011;3764;48.126;11.594;2023-05-02T09:36:12;9.70;;;7.43;;
7444;SDS011;3764;48.126;11.594;2023-05-02T09:38:41;9.38;;;8.48;;
7444;SDS011;3764;48.126;11.594;2023-05-02T09:41:08;10.98;;;9.88;;
7444;SDS011;3764;48.126;11.594;2023-05-02T09:43:35;9.27;;;8.30;;
7444;SDS011;3764;48.126;11.594;2023-05-02T09:46:03;8.95;;;7.65;;
7444;SDS011;3764;48.126;11.594;2023-05-02T09:48:32;9.40;;;8.50;;
7444;SDS011;3764;48.126;11.594;2023-05-02T09:51:18;9.75;;;8.45;;
7444;SDS011;3764;48.126;11.594;2023-05-02T09:53:46;9.80;;;7.97;;
7444;SDS011;3764;48.126;11.594;2023-05-02T09:56:13;8.50;;;7.55;;
7444;SDS011;3764;48.126;11.594;2023-05-02T09:58:41;12.57;;;8.43;;
7444;SDS011;3764;48.126;11.594;2023-05-02T10:01:12;11.52;;;7.95;;
7444;SDS011;3764;48.126;11.594;2023-05-02T10:03:40;7.63;;;6.93;;
7444;SDS011;3764;48.126;11.594;2023-05-02T10:06:11;8.35;;;7.55;;
7444;SDS011;3764;48.126;11.594;2023-05-02T10:08:40;9.23;;;8.32;;
7444;SDS011;3764;48.126;11.594;2023-05-02T10:11:08;8.65;;;7.75;;
7444;SDS011;3764;48.126;11.594;2023-05-02T10:13:37;8.52;;;7.45;;
7444;SDS011;3764;48.126;11.594;2023-05-02T10:16:06;8.57;;;7.22;;
7444;SDS011;3764;48.126;11.594;2023-05-02T10:18:38;10.02;;;8.55;;
7444;SDS011;3764;48.126;11.594;2023-05-02T10:21:09;8.65;;;7.15;;
7444;SDS011;3764;48.126;11.594;2023-05-02T10:23:37;8.80;;;7.90;;
7444;SDS011;3764;48.126;11.594;2023-05-02T10:26:09;13.43;;;9.30;;
7444;SDS011;3764;48.126;11.594;2023-05-02T10:28:39;9.02;;;8.13;;
7444;SDS011;3764;48.126;11.594;2023-05-02T10:31:08;8.63;;;7.70;;
7444;SDS011;3764;48.126;11.594;2023-05-02T10:33:36;9.15;;;8.25;;
7444;SDS011;3764;48.126;11.594;2023-05-02T10:36:06;9.18;;;8.27;;
7444;SDS011;3764;48.126;11.594;2023-05-02T10:38:34;9.27;;;7.95;;
7444;SDS011;3764;48.126;11.594;2023-05-02T10:41:06;11.50;;;9.95;;
7444;SDS011;3764;48.126;11.594;2023-05-02T10:43:35;10.30;;;8.45;;
7444;SDS011;3764;48.126;11.594;2023-05-02T10:46:17;12.82;;;9.27;;
7444;SDS011;3764;48.126;11.594;2023-05-02T10:48:59;10.05;;;9.00;;
7444;SDS011;3764;48.126;11.594;2023-05-02T10:51:27;9.48;;;7.72;;
7444;SDS011;3764;48.126;11.594;2023-05-02T10:57:07;10.57;;;8.30;;
7444;SDS011;3764;48.126;11.594;2023-05-02T10:59:35;8.70;;;7.80;;
7444;SDS011;3764;48.126;11.594;2023-05-02T11:02:04;7.78;;;7.03;;
7444;SDS011;3764;48.126;11.594;2023-05-02T11:04:59;8.82;;;7.95;;
7444;SDS011;3764;48.126;11.594;2023-05-02T11:07:28;12.15;;;8.20;;
7444;SDS011;3764;48.126;11.594;2023-05-02T11:12:52;8.45;;;7.60;;
7444;SDS011;3764;48.126;11.594;2023-05-02T11:18:22;8.15;;;7.35;;
7444;SDS011;3764;48.126;11.594;2023-05-02T11:20:49;10.88;;;8.38;;
7444;SDS011;3764;48.126;11.594;2023-05-02T11:23:20;10.68;;;8.63;;
7444;SDS011;3764;48.126;11.594;2023-05-02T11:25:54;15.52;;;8.60;;
7444;SDS011;3764;48.126;11.594;2023-05-02T11:28:42;14.57;;;10.20;;
7444;SDS011;3764;48.126;11.594;2023-05-02T11:34:38;14.05;;;8.80;;
7444;SDS011;3764;48.126;11.594;2023-05-02T11:37:11;13.18;;;8.45;;
7444;SDS011;3764;48.126;11.594;2023-05-02T11:39:39;9.07;;;8.10;;
7444;SDS011;3764;48.126;11.594;2023-05-02T11:42:07;11.18;;;9.10;;
7444;SDS011;3764;48.126;11.594;2023-05-02T11:44:47;10.00;;;8.05;;
7444;SDS011;3764;48.126;11.594;2023-05-02T11:47:22;8.60;;;6.47;;
7444;SDS011;3764;48.126;11.594;2023-05-02T11:49:50;8.75;;;7.85;;
7444;SDS011;3764;48.126;11.594;2023-05-02T11:52:17;10.32;;;8.18;;
7444;SDS011;3764;48.126;11.594;2023-05-02T11:54:44;10.82;;;9.40;;
7444;SDS011;3764;48.126;11.594;2023-05-02T11:57:12;13.88;;;10.02;;
7444;SDS011;3764;48.126;11.594;2023-05-02T11:59:50;12.65;;;10.77;;
7444;SDS011;3764;48.126;11.594;2023-05-02T12:02:17;14.13;;;11.38;;
7444;SDS011;3764;48.126;11.594;2023-05-02T12:04:45;12.85;;;10.57;;
7444;SDS011;3764;48.126;11.594;2023-05-02T12:07:12;14.55;;;12.80;;
7444;SDS011;3764;48.126;11.594;2023-05-02T12:09:49;12.70;;;10.65;;
7444;SDS011;3764;48.126;11.594;2023-05-02T12:12:18;14.27;;;12.48;;
7444;SDS011;3764;48.126;11.594;2023-05-02T12:14:45;13.23;;;11.88;;
7444;SDS011;3764;48.126;11.594;2023-05-02T12:17:14;13.95;;;12.07;;
7444;SDS011;3764;48.126;11.594;2023-05-02T12:19:41;14.80;;;11.75;;
7444;SDS011;3764;48.126;11.594;2023-05-02T12:22:09;12.52;;;11.23;;
7444;SDS011;3764;48.126;11.594;2023-05-02T12:24:37;12.15;;;10.73;;
7444;SDS011;3764;48.126;11.594;2023-05-02T12:27:08;14.27;;;12.07;;
7444;SDS011;3764;48.126;11.594;2023-05-02T12:29:39;13.57;;;12.18;;
7444;SDS011;3764;48.126;11.594;2023-05-02T12:32:07;12.40;;;11.10;;
7444;SDS011;3764;48.126;11.594;2023-05-02T12:34:36;13.13;;;10.63;;
7444;SDS011;3764;48.126;11.594;2023-05-02T12:37:04;14.30;;;11.30;;
7444;SDS011;3764;48.126;11.594;2023-05-02T12:39:33;11.85;;;9.90;;
7444;SDS011;3764;48.126;11.594;2023-05-02T12:42:07;10.90;;;9.80;;
7444;SDS011;3764;48.126;11.594;2023-05-02T12:44:35;13.45;;;11.55;;
7444;SDS011;3764;48.126;11.594;2023-05-02T12:47:03;14.02;;;12.20;;
7444;SDS011;3764;48.126;11.594;2023-05-02T12:49:30;16.15;;;12.55;;
7444;SDS011;3764;48.126;11.594;2023-05-02T12:51:58;17.48;;;13.63;;
7444;SDS011;3764;48.126;11.594;2023-05-02T12:54:25;16.23;;;12.10;;
7444;SDS011;3764;48.126;11.594;2023-05-02T12:56:52;15.45;;;13.68;;
7444;SDS011;3764;48.126;11.594;2023-05-02T12:59:26;11.88;;;9.93;;
7444;SDS011;3764;48.126;11.594;2023-05-02T13:01:54;9.70;;;8.45;;
7444;SDS011;3764;48.126;11.594;2023-05-02T13:04:31;11.60;;;7.35;;
7444;SDS011;3764;48.126;11.594;2023-05-02T13:07:00;10.00;;;8.85;;
7444;SDS011;3764;48.126;11.594;2023-05-02T13:09:27;11.55;;;8.50;;
7444;SDS011;3764;48.126;11.594;2023-05-02T13:11:54;12.50;;;9.70;;
7444;SDS011;3764;48.126;11.594;2023-05-02T13:14:23;11.98;;;9.40;;
7444;SDS011;3764;48.126;11.594;2023-05-02T13:16:50;10.02;;;8.98;;
7444;SDS011;3764;48.126;11.594;2023-05-02T13:19:17;10.15;;;9.15;;
7444;SDS011;3764;48.126;11.594;2023-05-02T13:21:44;10.55;;;9.38;;
7444;SDS011;3764;48.126;11.594;2023-05-02T13:24:13;9.88;;;8.70;;
7444;SDS011;3764;48.126;11.594;2023-05-02T13:26:41;9.57;;;8.60;;
7444;SDS011;3764;48.126;11.594;2023-05-02T13:29:09;8.75;;;7.35;;
7444;SDS011;3764;48.126;11.594;2023-05-02T13:31:36;6.65;;;6.00;;
7444;SDS011;3764;48.126;11.594;2023-05-02T13:34:03;6.53;;;5.85;;
7444;SDS011;3764;48.126;11.594;2023-05-02T13:36:31;7.00;;;6.00;;
7444;SDS011;3764;48.126;11.594;2023-05-02T13:38:58;8.85;;;6.00;;
7444;SDS011;3764;48.126;11.594;2023-05-02T13:41:27;6.60;;;6.00;;
7444;SDS011;3764;48.126;11.594;2023-05-02T13:43:54;7.50;;;6.00;;
7444;SDS011;3764;48.126;11.594;2023-05-02T13:46:21;7.82;;;6.95;;
7444;SDS011;3764;48.126;11.594;2023-05-02T13:48:48;7.95;;;7.13;;
7444;SDS011;3764;48.126;11.594;2023-05-02T13:51:15;6.85;;;6.15;;
7444;SDS011;3764;48.126;11.594;2023-05-02T13:53:42;11.65;;;7.03;;
7444;SDS011;3764;48.126;11.594;2023-05-02T13:56:09;6.80;;;6.18;;
7444;SDS011;3764;48.126;11.594;2023-05-02T13:58:38;7.00;;;6.30;;
7444;SDS011;3764;48.126;11.594;2023-05-02T14:01:05;8.20;;;6.90;;
7444;SDS011;3764;48.126;11.594;2023-05-02T14:03:37;11.48;;;7.40;;
7444;SDS011;3764;48.126;11.594;2023-05-02T14:06:04;8.93;;;7.72;;
7444;SDS011;3764;48.126;11.594;2023-05-02T14:08:32;7.25;;;6.65;;
7444;SDS011;3764;48.126;11.594;2023-05-02T14:10:59;7.72;;;6.90;;
7444;SDS011;3764;48.126;11.594;2023-05-02T14:13:26;6.97;;;6.28;;
7444;SDS011;3764;48.126;11.594;2023-05-02T14:15:54;5.07;;;4.60;;
7444;SDS011;3764;48.126;11.594;2023-05-02T14:18:22;4.05;;;3.75;;
7444;SDS011;3764;48.126;11.594;2023-05-02T14:20:49;5.25;;;3.85;;
7444;SDS011;3764;48.126;11.594;2023-05-02T14:23:16;5.40;;;4.43;;
7444;SDS011;3764;48.126;11.594;2023-05-02T14:25:43;6.25;;;5.15;;
7444;SDS011;3764;48.126;11.594;2023-05-02T14:28:11;6.25;;;5.65;;
7444;SDS011;3764;48.126;11.594;2023-05-02T14:30:38;6.32;;;5.72;;
7444;SDS011;3764;48.126;11.594;2023-05-02T14:33:06;10.65;;;6.20;;
7444;SDS011;3764;48.126;11.594;2023-05-02T14:35:33;7.00;;;5.50;;
7444;SDS011;3764;48.126;11.594;2023-05-02T14:38:00;8.85;;;6.30;;
7444;SDS011;3764;48.126;11.594;2023-05-02T14:40:28;6.68;;;5.60;;
7444;SDS011;3764;48.126;11.594;2023-05-02T14:42:55;6.90;;;6.30;;
7444;SDS011;3764;48.126;11.594;2023-05-02T14:45:22;6.50;;;5.35;;
7444;SDS011;3764;48.126;11.594;2023-05-02T14:47:50;6.65;;;6.03;;
7444;SDS011;3764;48.126;11.594;2023-05-02T14:50:18;6.32;;;5.72;;
7444;SDS011;3764;48.126;11.594;2023-05-02T14:52:45;6.10;;;5.47;;
7444;SDS011;3764;48.126;11.594;2023-05-02T14:55:12;7.70;;;5.97;;
7444;SDS011;3764;48.126;11.594;2023-05-02T14:57:40;6.80;;;6.20;;
7444;SDS011;3764;48.126;11.594;2023-05-02T15:00:07;11.68;;;6.53;;
7444;SDS011;3764;48.126;11.594;2023-05-02T15:02:35;6.65;;;6.00;;
7444;SDS011;3764;48.126;11.594;2023-05-02T15:05:02;7.80;;;7.00;;
7444;SDS011;3764;48.126;11.594;2023-05-02T15:07:33;9.63;;;6.38;;
7444;SDS011;3764;48.126;11.594;2023-05-02T15:10:00;7.43;;;6.70;;
7444;SDS011;3764;48.126;11.594;2023-05-02T15:12:27;6.82;;;6.13;;
7444;SDS011;3764;48.126;11.594;2023-05-02T15:14:55;6.50;;;5.10;;
7444;SDS011;3764;48.126;11.594;2023-05-02T15:17:22;9.25;;;6.97;;
7444;SDS011;3764;48.126;11.594;2023-05-02T15:19:49;6.60;;;5.90;;
7444;SDS011;3764;48.126;11.594;2023-05-02T15:22:16;7.45;;;5.95;;
7444;SDS011;3764;48.126;11.594;2023-05-02T15:24:44;6.57;;;5.55;;
7444;SDS011;3764;48.126;11.594;2023-05-02T15:27:11;7.63;;;6.10;;